Time;durP1;ratioP1;P1;durP2;ratioP2;P2;SDS_P1;SDS_P2;PMS_P1;PMS_P2;Temp;Humidity;BMP_temperature;BMP_pressure;BME280_temperature;BME280_humidity;BME280_pressure;Samples;Min_cycle;Max_cycle;Signal;HPM_P1;HPM_P2
2023/08/03 00:00:26;;;;;;;3.33;0.90;;;;;;;;;;5032041;28;20044;-78
2023/08/03 00:02:52;;;;;;;0.93;0.50;;;;;;;;;;5027021;28;20119;-77
2023/08/03 00:05:19;;;;;;;2.65;0.80;;;;;;;;;;5027880;28;20068;-78
2023/08/03 00:07:45;;;;;;;5.53;1.42;;;;;;;;;;5025530;28;20037;-78
2023/08/03 00:10:11;;;;;;;1.20;0.55;;;;;;;;;;5024369;28;20042;-79
2023/08/03 00:12:37;;;;;;;3.42;0.98;;;;;;;;;;5031596;28;20072;-77
2023/08/03 00:15:04;;;;;;;3.63;1.17;;;;;;;;;;5027979;28;20138;-77
2023/08/03 00:17:30;;;;;;;5.10;0.77;;;;;;;;;;5033644;28;20366;-79
2023/08/03 00:19:56;;;;;;;5.57;0.73;;;;;;;;;;5047663;28;20488;-77
2023/08/03 00:22:22;;;;;;;5.10;1.25;;;;;;;;;;5034450;28;20026;-79
2023/08/03 00:24:50;;;;;;;2.90;0.95;;;;;;;;;;5032728;28;20044;-79
2023/08/03 00:27:18;;;;;;;3.97;1.10;;;;;;;;;;5035100;28;20041;-78
2023/08/03 00:29:44;;;;;;;4.93;0.55;;;;;;;;;;5034232;28;20026;-77
2023/08/03 00:32:12;;;;;;;1.15;0.32;;;;;;;;;;5038156;28;20038;-76
2023/08/03 00:34:38;;;;;;;4.97;0.60;;;;;;;;;;5055158;28;20493;-77
2023/08/03 00:37:05;;;;;;;2.35;0.63;;;;;;;;;;5037425;28;20070;-75
2023/08/03 00:39:31;;;;;;;1.63;0.40;;;;;;;;;;5035024;28;20053;-77
2023/08/03 00:41:59;;;;;;;1.20;0.40;;;;;;;;;;5037447;28;20037;-78
2023/08/03 00:44:25;;;;;;;2.88;0.63;;;;;;;;;;5029474;28;20045;-79
2023/08/03 00:46:51;;;;;;;2.17;0.45;;;;;;;;;;5032538;28;20033;-77
2023/08/03 00:49:17;;;;;;;2.17;0.50;;;;;;;;;;5025801;28;20034;-77
2023/08/03 00:51:46;;;;;;;2.78;0.40;;;;;;;;;;5028496;28;20038;-80
2023/08/03 00:54:12;;;;;;;1.30;0.50;;;;;;;;;;5028919;28;20453;-78
2023/08/03 00:56:41;;;;;;;1.33;0.57;;;;;;;;;;5028355;28;20034;-79
2023/08/03 00:59:07;;;;;;;2.78;0.82;;;;;;;;;;5047525;28;21723;-78
2023/08/03 01:01:33;;;;;;;2.65;0.50;;;;;;;;;;5028896;28;20152;-78
2023/08/03 01:03:59;;;;;;;3.55;0.63;;;;;;;;;;5028314;28;20039;-79
2023/08/03 01:06:25;;;;;;;1.67;0.77;;;;;;;;;;5032167;28;20480;-78
2023/08/03 01:08:51;;;;;;;6.30;0.75;;;;;;;;;;5026101;28;20033;-77
2023/08/03 01:11:17;;;;;;;1.73;0.35;;;;;;;;;;5030118;28;20041;-79
2023/08/03 01:13:43;;;;;;;3.88;0.50;;;;;;;;;;5029447;28;20040;-78
2023/08/03 01:16:10;;;;;;;2.15;0.45;;;;;;;;;;5029925;28;20064;-78
2023/08/03 01:18:37;;;;;;;3.83;0.70;;;;;;;;;;5026736;28;20037;-77
2023/08/03 01:21:04;;;;;;;3.20;0.50;;;;;;;;;;5024995;28;20691;-78
2023/08/03 01:23:33;;;;;;;1.30;0.60;;;;;;;;;;5028840;28;20034;-79
2023/08/03 01:25:59;;;;;;;2.13;0.30;;;;;;;;;;5023147;28;20120;-78
2023/08/03 01:28:25;;;;;;;3.38;0.77;;;;;;;;;;5020368;28;21223;-77
2023/08/03 01:30:50;;;;;;;2.17;0.60;;;;;;;;;;5020909;28;20121;-78
2023/08/03 01:33:17;;;;;;;0.88;0.40;;;;;;;;;;5023648;28;20041;-77
2023/08/03 01:35:43;;;;;;;4.15;0.70;;;;;;;;;;5027492;28;20068;-78
2023/08/03 01:38:09;;;;;;;2.65;0.60;;;;;;;;;;5027288;28;20033;-79
2023/08/03 01:40:34;;;;;;;6.40;0.98;;;;;;;;;;5025855;28;20095;-76
2023/08/03 01:43:00;;;;;;;1.23;0.28;;;;;;;;;;5024144;28;20069;-79
2023/08/03 01:45:26;;;;;;;1.60;0.30;;;;;;;;;;5024126;28;20690;-78
2023/08/03 01:47:52;;;;;;;2.97;0.55;;;;;;;;;;5027393;28;20044;-78
2023/08/03 01:50:18;;;;;;;5.25;0.65;;;;;;;;;;5045178;28;20071;-78
2023/08/03 01:52:44;;;;;;;2.30;0.73;;;;;;;;;;5030693;28;20033;-76
2023/08/03 01:55:11;;;;;;;1.90;0.55;;;;;;;;;;5030584;28;20056;-79
2023/08/03 01:57:41;;;;;;;5.47;0.60;;;;;;;;;;5028813;28;20061;-78
2023/08/03 02:00:08;;;;;;;2.30;0.50;;;;;;;;;;5023266;28;20037;-77
2023/08/03 02:02:34;;;;;;;2.72;0.40;;;;;;;;;;5026057;28;20037;-76
2023/08/03 02:05:00;;;;;;;1.77;0.50;;;;;;;;;;5025230;28;20037;-78
2023/08/03 02:07:45;;;;;;;3.25;0.40;;;;;;;;;;5025983;28;20052;-79
2023/08/03 02:10:12;;;;;;;2.85;0.30;;;;;;;;;;5017051;28;20037;-76
2023/08/03 02:12:38;;;;;;;1.65;0.30;;;;;;;;;;5031179;28;20092;-79
2023/08/03 02:15:04;;;;;;;2.42;0.60;;;;;;;;;;5029687;28;20433;-78
2023/08/03 02:17:30;;;;;;;0.82;0.28;;;;;;;;;;5027419;28;20045;-78
2023/08/03 02:19:59;;;;;;;3.03;0.40;;;;;;;;;;5026151;28;20144;-78
2023/08/03 02:22:25;;;;;;;3.20;0.57;;;;;;;;;;5030060;28;20416;-79
2023/08/03 02:24:51;;;;;;;1.65;0.55;;;;;;;;;;5030124;28;20041;-78
2023/08/03 02:27:17;;;;;;;2.25;0.47;;;;;;;;;;5027355;28;20041;-79
2023/08/03 02:29:43;;;;;;;1.33;0.40;;;;;;;;;;5029281;28;20366;-77
2023/08/03 02:32:09;;;;;;;1.35;0.40;;;;;;;;;;5027330;28;20119;-79
2023/08/03 02:34:35;;;;;;;2.50;0.50;;;;;;;;;;5029074;28;20041;-79
2023/08/03 02:37:01;;;;;;;1.90;0.60;;;;;;;;;;5025716;28;20053;-79
2023/08/03 02:39:27;;;;;;;4.57;0.50;;;;;;;;;;5025622;28;20583;-78
2023/08/03 02:41:53;;;;;;;1.48;0.50;;;;;;;;;;5043779;28;20111;-78
2023/08/03 02:44:23;;;;;;;9.07;0.77;;;;;;;;;;5028364;28;20041;-78
2023/08/03 02:46:49;;;;;;;2.10;0.63;;;;;;;;;;5023941;28;20048;-79
2023/08/03 02:49:15;;;;;;;0.80;0.30;;;;;;;;;;5022870;28;20100;-80
2023/08/03 02:51:44;;;;;;;3.38;0.32;;;;;;;;;;5029239;28;20120;-77
2023/08/03 02:54:10;;;;;;;3.15;0.40;;;;;;;;;;5030707;28;20041;-79
2023/08/03 02:56:36;;;;;;;1.13;0.30;;;;;;;;;;5023336;28;20961;-79
2023/08/03 02:59:05;;;;;;;1.60;0.40;;;;;;;;;;5020276;28;20037;-79
2023/08/03 03:01:31;;;;;;;2.78;0.38;;;;;;;;;;5023488;28;21649;-78
2023/08/03 03:03:57;;;;;;;1.30;0.50;;;;;;;;;;5023188;28;20060;-78
2023/08/03 03:06:23;;;;;;;1.73;0.40;;;;;;;;;;5022089;28;20556;-77
2023/08/03 03:08:51;;;;;;;1.23;0.30;;;;;;;;;;5023038;28;20029;-79
2023/08/03 03:11:19;;;;;;;1.15;0.40;;;;;;;;;;5042512;28;20959;-76
2023/08/03 03:13:45;;;;;;;1.27;0.30;;;;;;;;;;5023065;28;20392;-76
2023/08/03 03:16:11;;;;;;;1.58;0.20;;;;;;;;;;5025442;28;20042;-79
2023/08/03 03:18:37;;;;;;;1.75;0.30;;;;;;;;;;5026094;28;20037;-80
2023/08/03 03:21:03;;;;;;;0.30;0.20;;;;;;;;;;5025266;28;20168;-76
2023/08/03 03:23:29;;;;;;;0.55;0.20;;;;;;;;;;5028477;28;20048;-79
2023/08/03 03:25:55;;;;;;;0.90;0.40;;;;;;;;;;5023989;28;20041;-79
2023/08/03 03:28:21;;;;;;;1.77;0.38;;;;;;;;;;5031268;28;20068;-79
2023/08/03 03:30:47;;;;;;;2.15;0.73;;;;;;;;;;5030237;28;21355;-79
2023/08/03 03:33:15;;;;;;;4.40;0.43;;;;;;;;;;5027898;28;20022;-78
2023/08/03 03:35:41;;;;;;;0.28;0.20;;;;;;;;;;5027944;28;20029;-79
2023/08/03 03:38:10;;;;;;;0.85;0.32;;;;;;;;;;5027230;28;20116;-76
2023/08/03 03:40:36;;;;;;;1.00;0.32;;;;;;;;;;5030130;28;20164;-79
2023/08/03 03:43:02;;;;;;;1.50;0.40;;;;;;;;;;5027580;28;20179;-78
2023/08/03 03:45:30;;;;;;;1.17;0.38;;;;;;;;;;5028652;28;20112;-78
2023/08/03 03:47:56;;;;;;;0.98;0.30;;;;;;;;;;5053838;28;20025;-79
2023/08/03 03:50:22;;;;;;;1.10;0.20;;;;;;;;;;5033069;28;20038;-77
2023/08/03 03:52:50;;;;;;;0.80;0.20;;;;;;;;;;5044117;28;20477;-77
2023/08/03 03:55:16;;;;;;;2.75;0.50;;;;;;;;;;5027028;28;20033;-77
2023/08/03 03:57:42;;;;;;;0.32;0.30;;;;;;;;;;5022924;28;20447;-78
2023/08/03 04:00:09;;;;;;;2.70;0.30;;;;;;;;;;5024463;28;20056;-76
2023/08/03 04:02:35;;;;;;;0.55;0.40;;;;;;;;;;5022830;28;20094;-77
2023/08/03 04:05:01;;;;;;;2.47;0.47;;;;;;;;;;5025356;28;20045;-78
2023/08/03 04:07:26;;;;;;;1.02;0.30;;;;;;;;;;5043345;28;20026;-77
2023/08/03 04:09:52;;;;;;;0.68;0.30;;;;;;;;;;5026748;28;20037;-79
2023/08/03 04:12:18;;;;;;;6.07;0.40;;;;;;;;;;5023146;28;20393;-79
2023/08/03 04:14:44;;;;;;;0.75;0.28;;;;;;;;;;5024332;28;20052;-77
2023/08/03 04:17:13;;;;;;;2.05;0.22;;;;;;;;;;5021641;28;20105;-79
2023/08/03 04:19:39;;;;;;;0.50;0.28;;;;;;;;;;5026357;28;20026;-78
2023/08/03 04:22:05;;;;;;;1.70;0.50;;;;;;;;;;5025428;28;20098;-79
2023/08/03 04:24:31;;;;;;;1.40;0.40;;;;;;;;;;5021644;28;20033;-79
2023/08/03 04:26:57;;;;;;;0.68;0.30;;;;;;;;;;5023770;28;20041;-79
2023/08/03 04:29:23;;;;;;;0.50;0.20;;;;;;;;;;5025225;28;20084;-79
2023/08/03 04:31:51;;;;;;;0.50;0.22;;;;;;;;;;5023807;28;20040;-78
2023/08/03 04:34:19;;;;;;;2.80;0.38;;;;;;;;;;5023065;28;20041;-79
2023/08/03 04:36:47;;;;;;;1.75;0.20;;;;;;;;;;5028726;28;20162;-76
2023/08/03 04:39:13;;;;;;;0.20;0.20;;;;;;;;;;5024393;28;20049;-79
2023/08/03 04:41:39;;;;;;;2.40;0.30;;;;;;;;;;5025260;28;20040;-78
2023/08/03 04:44:05;;;;;;;0.52;0.30;;;;;;;;;;5025861;28;21524;-77
2023/08/03 04:46:31;;;;;;;0.98;0.20;;;;;;;;;;5024437;28;20048;-76
2023/08/03 04:48:58;;;;;;;0.52;0.30;;;;;;;;;;5026749;28;20033;-77
2023/08/03 04:51:24;;;;;;;1.65;0.22;;;;;;;;;;5024777;28;20104;-78
2023/08/03 04:53:50;;;;;;;1.00;0.20;;;;;;;;;;5023985;28;20071;-79
2023/08/03 04:56:16;;;;;;;0.60;0.20;;;;;;;;;;5028033;28;20047;-78
2023/08/03 04:58:44;;;;;;;0.73;0.10;;;;;;;;;;5024357;28;20630;-79
2023/08/03 05:01:13;;;;;;;0.95;0.20;;;;;;;;;;5023983;28;20120;-78
2023/08/03 05:03:39;;;;;;;0.30;0.10;;;;;;;;;;5026176;28;20061;-79
2023/08/03 05:06:05;;;;;;;0.25;0.20;;;;;;;;;;5030316;28;20080;-78
2023/08/03 05:08:31;;;;;;;0.32;0.20;;;;;;;;;;5025574;28;20111;-77
2023/08/03 05:10:57;;;;;;;0.70;0.20;;;;;;;;;;5024149;28;20037;-79
2023/08/03 05:13:23;;;;;;;1.38;0.38;;;;;;;;;;5028501;28;20041;-78
2023/08/03 05:15:48;;;;;;;1.30;0.30;;;;;;;;;;5026552;28;20030;-79
2023/08/03 05:18:14;;;;;;;0.45;0.20;;;;;;;;;;5029018;28;20071;-79
2023/08/03 05:20:41;;;;;;;1.75;0.25;;;;;;;;;;5024031;28;20501;-79
2023/08/03 05:23:08;;;;;;;1.95;0.10;;;;;;;;;;5024396;28;20695;-79
2023/08/03 05:25:34;;;;;;;0.90;0.20;;;;;;;;;;5028490;28;20077;-79
2023/08/03 05:28:01;;;;;;;1.75;0.38;;;;;;;;;;5022739;28;20041;-77
2023/08/03 05:30:27;;;;;;;1.17;0.20;;;;;;;;;;5024409;28;20048;-77
2023/08/03 05:32:53;;;;;;;0.47;0.10;;;;;;;;;;5025146;28;20041;-78
2023/08/03 05:35:19;;;;;;;1.20;0.30;;;;;;;;;;5026587;28;20025;-80
2023/08/03 05:37:45;;;;;;;0.10;0.10;;;;;;;;;;5027934;28;20092;-79
2023/08/03 05:40:11;;;;;;;0.77;0.40;;;;;;;;;;5028437;28;20116;-77
2023/08/03 05:42:39;;;;;;;2.97;0.32;;;;;;;;;;5045708;28;20511;-79
2023/08/03 05:45:09;;;;;;;1.02;0.20;;;;;;;;;;5025693;28;20048;-79
2023/08/03 05:47:37;;;;;;;0.60;0.13;;;;;;;;;;5029703;28;20045;-78
2023/08/03 05:50:05;;;;;;;0.60;0.10;;;;;;;;;;5027647;28;20037;-78
2023/08/03 05:52:31;;;;;;;1.25;0.10;;;;;;;;;;5027784;28;20041;-76
2023/08/03 05:54:57;;;;;;;0.10;0.10;;;;;;;;;;5026004;28;20053;-79
2023/08/03 05:57:23;;;;;;;0.47;0.10;;;;;;;;;;5023780;28;20540;-79
2023/08/03 05:59:51;;;;;;;3.08;0.20;;;;;;;;;;5024281;28;20037;-78
2023/08/03 06:02:27;;;;;;;1.67;0.15;;;;;;;;;;5028438;28;20037;-80
2023/08/03 06:04:53;;;;;;;0.63;0.10;;;;;;;;;;5039329;28;20044;-78
2023/08/03 06:07:19;;;;;;;4.95;0.20;;;;;;;;;;5033833;28;20053;-77
2023/08/03 06:09:49;;;;;;;0.57;0.20;;;;;;;;;;5031668;28;20034;-78
2023/08/03 06:12:16;;;;;;;1.33;0.30;;;;;;;;;;5053572;28;20032;-79
2023/08/03 06:14:42;;;;;;;0.98;0.30;;;;;;;;;;5034942;28;20042;-79
2023/08/03 06:17:12;;;;;;;4.32;0.10;;;;;;;;;;5036822;28;20064;-78
2023/08/03 06:19:38;;;;;;;1.75;0.40;;;;;;;;;;5044027;28;20030;-76
2023/08/03 06:22:11;;;;;;;3.60;0.22;;;;;;;;;;5045410;28;20040;-76
2023/08/03 06:24:37;;;;;;;1.40;0.35;;;;;;;;;;5039263;28;20038;-77
2023/08/03 06:27:03;;;;;;;0.82;0.20;;;;;;;;;;5052487;28;20022;-76
2023/08/03 06:29:30;;;;;;;2.10;0.35;;;;;;;;;;5040125;28;20029;-75
2023/08/03 06:31:56;;;;;;;5.22;0.40;;;;;;;;;;5026471;28;20092;-78
2023/08/03 06:34:22;;;;;;;2.40;0.32;;;;;;;;;;5025837;28;20133;-78
2023/08/03 06:36:51;;;;;;;2.20;0.38;;;;;;;;;;5024959;28;20025;-77
2023/08/03 06:39:17;;;;;;;4.55;0.85;;;;;;;;;;5026046;28;20040;-78
2023/08/03 06:41:45;;;;;;;2.13;0.55;;;;;;;;;;5026443;28;20037;-77
2023/08/03 06:44:11;;;;;;;1.27;0.50;;;;;;;;;;5033234;28;20173;-76
2023/08/03 06:46:37;;;;;;;2.63;0.45;;;;;;;;;;5020229;28;21831;-79
2023/08/03 06:49:06;;;;;;;0.70;0.40;;;;;;;;;;5021875;28;20056;-77
2023/08/03 06:51:36;;;;;;;7.25;0.90;;;;;;;;;;5038302;28;20045;-78
2023/08/03 06:54:04;;;;;;;3.97;1.20;;;;;;;;;;5022008;28;20091;-77
2023/08/03 06:56:31;;;;;;;1.65;0.80;;;;;;;;;;5038486;28;20446;-75
2023/08/03 06:58:57;;;;;;;9.27;1.63;;;;;;;;;;5019689;28;20030;-76
2023/08/03 07:01:26;;;;;;;8.02;1.20;;;;;;;;;;5020502;28;20033;-77
2023/08/03 07:03:52;;;;;;;9.82;1.00;;;;;;;;;;5018442;28;20033;-78
2023/08/03 07:06:18;;;;;;;3.47;1.00;;;;;;;;;;5021471;28;20069;-77
2023/08/03 07:08:44;;;;;;;2.90;0.85;;;;;;;;;;5018706;28;20060;-78
2023/08/03 07:11:10;;;;;;;6.60;1.52;;;;;;;;;;5018266;28;20048;-76
2023/08/03 07:13:36;;;;;;;1.55;1.00;;;;;;;;;;5019862;28;20033;-78
2023/08/03 07:16:06;;;;;;;5.60;1.50;;;;;;;;;;5018956;28;20038;-79
2023/08/03 07:18:32;;;;;;;5.32;1.25;;;;;;;;;;5021630;28;20030;-78
2023/08/03 07:21:02;;;;;;;2.90;1.35;;;;;;;;;;5019399;28;20029;-76
2023/08/03 07:23:31;;;;;;;4.97;1.63;;;;;;;;;;5019377;28;20036;-77
2023/08/03 07:25:58;;;;;;;1.33;1.00;;;;;;;;;;5020790;28;20052;-78
2023/08/03 07:28:24;;;;;;;4.75;1.80;;;;;;;;;;5022129;28;20037;-76
2023/08/03 07:30:50;;;;;;;3.65;1.63;;;;;;;;;;5021458;28;20029;-77
2023/08/03 07:33:16;;;;;;;5.13;1.70;;;;;;;;;;5018804;28;20029;-76
2023/08/03 07:35:44;;;;;;;3.95;1.80;;;;;;;;;;5039053;28;20497;-78
2023/08/03 07:38:10;;;;;;;5.65;1.65;;;;;;;;;;5019238;28;20029;-76
2023/08/03 07:40:36;;;;;;;3.78;1.52;;;;;;;;;;5020204;28;20030;-78
2023/08/03 07:43:04;;;;;;;2.25;1.40;;;;;;;;;;5018429;28;20056;-78
2023/08/03 07:45:30;;;;;;;6.10;1.25;;;;;;;;;;5018482;28;20064;-78
2023/08/03 07:47:56;;;;;;;4.60;1.30;;;;;;;;;;5021743;28;20429;-77
2023/08/03 07:50:22;;;;;;;3.85;0.90;;;;;;;;;;5019169;28;20068;-78
2023/08/03 07:52:48;;;;;;;3.75;1.20;;;;;;;;;;5019784;28;20034;-77
2023/08/03 07:55:14;;;;;;;1.75;0.80;;;;;;;;;;5019294;28;20029;-78
2023/08/03 07:57:40;;;;;;;3.78;0.82;;;;;;;;;;5023935;28;20021;-75
2023/08/03 08:00:07;;;;;;;2.50;1.02;;;;;;;;;;5038500;28;20091;-78
2023/08/03 08:02:33;;;;;;;4.07;0.85;;;;;;;;;;5019918;28;20049;-77
2023/08/03 08:05:01;;;;;;;2.00;0.95;;;;;;;;;;5019199;28;20041;-78
2023/08/03 08:07:28;;;;;;;5.93;0.85;;;;;;;;;;5017295;28;20083;-77
2023/08/03 08:09:54;;;;;;;2.22;0.70;;;;;;;;;;5018947;28;20060;-77
2023/08/03 08:12:20;;;;;;;1.60;0.50;;;;;;;;;;5019707;28;20061;-78
2023/08/03 08:14:49;;;;;;;0.55;0.50;;;;;;;;;;5024549;28;20037;-79
2023/08/03 08:17:15;;;;;;;3.83;0.95;;;;;;;;;;5046155;28;20088;-77
2023/08/03 08:19:41;;;;;;;2.15;0.40;;;;;;;;;;5026477;28;20095;-77
2023/08/03 08:22:08;;;;;;;1.85;0.50;;;;;;;;;;5029336;28;20037;-75
2023/08/03 08:24:34;;;;;;;1.50;0.50;;;;;;;;;;5026960;28;20112;-77
2023/08/03 08:27:03;;;;;;;1.92;0.70;;;;;;;;;;5022148;28;20373;-78
2023/08/03 08:29:29;;;;;;;2.10;0.50;;;;;;;;;;5023131;28;20042;-78
2023/08/03 08:31:55;;;;;;;1.23;0.65;;;;;;;;;;5041058;28;20445;-77
2023/08/03 08:34:21;;;;;;;3.25;1.05;;;;;;;;;;5023991;28;20038;-77
2023/08/03 08:36:51;;;;;;;3.58;0.70;;;;;;;;;;5021623;28;20037;-76
2023/08/03 08:39:17;;;;;;;2.28;0.50;;;;;;;;;;5025574;28;20461;-78
2023/08/03 08:41:43;;;;;;;1.10;0.70;;;;;;;;;;5020947;28;20033;-78
2023/08/03 08:44:15;;;;;;;1.95;0.63;;;;;;;;;;5023578;28;20188;-77
2023/08/03 08:46:42;;;;;;;1.42;0.47;;;;;;;;;;5022467;28;20082;-79
2023/08/03 08:49:11;;;;;;;0.85;0.50;;;;;;;;;;5040944;28;20048;-78
2023/08/03 08:51:38;;;;;;;3.00;0.43;;;;;;;;;;5024426;28;20029;-77
2023/08/03 08:54:03;;;;;;;1.00;0.57;;;;;;;;;;5021082;28;20045;-77
2023/08/03 08:56:32;;;;;;;1.00;0.40;;;;;;;;;;5027330;28;20037;-76
2023/08/03 08:59:01;;;;;;;1.73;0.40;;;;;;;;;;5022268;28;20057;-75
2023/08/03 09:01:27;;;;;;;1.40;0.43;;;;;;;;;;5019706;28;20029;-79
2023/08/03 09:03:55;;;;;;;1.55;0.30;;;;;;;;;;5040325;28;20029;-77
2023/08/03 09:06:21;;;;;;;2.40;0.70;;;;;;;;;;5021012;28;20037;-78
2023/08/03 09:08:49;;;;;;;0.95;0.30;;;;;;;;;;5022220;28;20033;-78
2023/08/03 09:11:17;;;;;;;0.93;0.30;;;;;;;;;;5023828;28;20100;-78
2023/08/03 09:13:46;;;;;;;1.70;0.40;;;;;;;;;;5022850;28;20034;-79
2023/08/03 09:16:22;;;;;;;2.42;0.28;;;;;;;;;;5022937;28;20099;-79
2023/08/03 09:18:48;;;;;;;2.38;0.30;;;;;;;;;;5022186;28;20033;-78
2023/08/03 09:21:15;;;;;;;1.27;0.75;;;;;;;;;;5042473;28;20029;-78
2023/08/03 09:23:44;;;;;;;2.25;0.57;;;;;;;;;;5022631;28;20041;-76
2023/08/03 09:26:11;;;;;;;3.08;0.30;;;;;;;;;;5022979;28;20037;-76
2023/08/03 09:28:43;;;;;;;0.43;0.20;;;;;;;;;;5024276;28;20578;-77
2023/08/03 09:31:11;;;;;;;1.25;0.20;;;;;;;;;;5023471;28;20064;-78
2023/08/03 09:33:37;;;;;;;1.08;0.50;;;;;;;;;;5027800;28;20033;-77
2023/08/03 09:36:03;;;;;;;1.17;0.30;;;;;;;;;;5029471;28;20030;-78
2023/08/03 09:38:29;;;;;;;3.65;0.35;;;;;;;;;;5026218;28;20033;-77
2023/08/03 09:40:56;;;;;;;1.85;0.40;;;;;;;;;;5028788;28;20022;-78
2023/08/03 09:43:24;;;;;;;3.03;0.35;;;;;;;;;;5032892;28;20047;-77
2023/08/03 09:45:51;;;;;;;1.77;1.02;;;;;;;;;;5023289;28;20561;-79
2023/08/03 09:48:19;;;;;;;1.13;0.35;;;;;;;;;;5022621;28;20590;-79
2023/08/03 09:50:52;;;;;;;3.22;0.90;;;;;;;;;;5023962;28;20399;-79
2023/08/03 09:53:21;;;;;;;2.85;0.60;;;;;;;;;;5033290;28;20045;-78
2023/08/03 09:55:58;;;;;;;2.47;0.52;;;;;;;;;;5038698;28;20452;-77
2023/08/03 09:58:28;;;;;;;4.70;1.08;;;;;;;;;;5054758;28;20021;-79
2023/08/03 10:00:55;;;;;;;3.70;0.70;;;;;;;;;;5034219;28;20044;-79
2023/08/03 10:03:22;;;;;;;3.65;1.02;;;;;;;;;;5034902;28;20044;-80
2023/08/03 10:06:04;;;;;;;3.17;0.77;;;;;;;;;;5035781;28;20029;-78
2023/08/03 10:08:40;;;;;;;2.88;0.68;;;;;;;;;;5040036;28;20033;-78
2023/08/03 10:11:07;;;;;;;2.50;0.60;;;;;;;;;;5023533;28;20168;-80
2023/08/03 10:13:34;;;;;;;2.03;0.57;;;;;;;;;;5032092;28;20044;-78
2023/08/03 10:16:03;;;;;;;3.03;0.80;;;;;;;;;;5031707;28;20059;-78
2023/08/03 10:18:30;;;;;;;2.03;0.63;;;;;;;;;;5021698;28;20339;-79
2023/08/03 10:20:56;;;;;;;2.42;0.70;;;;;;;;;;5020386;28;20033;-76
2023/08/03 10:23:25;;;;;;;1.77;0.68;;;;;;;;;;5022088;28;20044;-79
2023/08/03 10:25:53;;;;;;;3.03;1.00;;;;;;;;;;5018905;28;20044;-80
2023/08/03 10:28:26;;;;;;;4.43;0.90;;;;;;;;;;5038785;28;20041;-80
2023/08/03 10:31:03;;;;;;;3.00;1.10;;;;;;;;;;5022022;28;20116;-81
2023/08/03 10:33:51;;;;;;;3.67;0.98;;;;;;;;;;5018665;28;20037;-77
2023/08/03 10:36:29;;;;;;;4.88;1.00;;;;;;;;;;5017210;28;20037;-79
2023/08/03 10:38:56;;;;;;;4.82;1.08;;;;;;;;;;5040424;28;20036;-79
2023/08/03 10:41:22;;;;;;;2.50;0.70;;;;;;;;;;5024999;28;20025;-77
2023/08/03 10:44:14;;;;;;;5.38;1.17;;;;;;;;;;5033895;28;20484;-78
2023/08/03 10:46:40;;;;;;;;;;;;;;;;;;5025321;28;20068;-79
2023/08/03 10:49:22;;;;;;;6.63;0.98;;;;;;;;;;5025480;28;19928;-76
2023/08/03 10:51:48;;;;;;;5.22;1.58;;;;;;;;;;5019724;28;20048;-77
2023/08/03 10:54:18;;;;;;;4.03;0.68;;;;;;;;;;5019801;28;20037;-80
2023/08/03 10:57:04;;;;;;;3.70;0.82;;;;;;;;;;5020182;28;20045;-80
2023/08/03 10:59:35;;;;;;;4.05;0.88;;;;;;;;;;5030855;28;20082;-76
2023/08/03 11:02:08;;;;;;;4.03;0.55;;;;;;;;;;5029465;28;20037;-77
2023/08/03 11:04:35;;;;;;;5.20;0.95;;;;;;;;;;5028009;28;20041;-77
2023/08/03 11:07:01;;;;;;;4.25;0.80;;;;;;;;;;5021439;28;20172;-78
2023/08/03 11:09:29;;;;;;;4.40;1.15;;;;;;;;;;5023957;28;20055;-78
2023/08/03 11:11:58;;;;;;;3.45;1.08;;;;;;;;;;5045348;28;20091;-74
2023/08/03 11:14:24;;;;;;;4.65;0.93;;;;;;;;;;5053647;28;20041;-78
2023/08/03 11:16:50;;;;;;;4.20;0.80;;;;;;;;;;5023580;28;20033;-79
2023/08/03 11:19:16;;;;;;;4.40;1.15;;;;;;;;;;5025509;28;20332;-78
2023/08/03 11:21:42;;;;;;;5.18;1.30;;;;;;;;;;5020408;28;20041;-80
2023/08/03 11:24:10;;;;;;;3.75;1.20;;;;;;;;;;5022123;28;20052;-77
2023/08/03 11:26:36;;;;;;;2.35;0.73;;;;;;;;;;5038523;28;20052;-76
2023/08/03 11:29:03;;;;;;;2.85;1.00;;;;;;;;;;5032467;28;20041;-77
2023/08/03 11:31:29;;;;;;;4.47;1.30;;;;;;;;;;5022124;28;20040;-79
2023/08/03 11:33:55;;;;;;;1.95;0.75;;;;;;;;;;5018623;28;20477;-80
2023/08/03 11:36:25;;;;;;;7.03;1.27;;;;;;;;;;5039631;28;20076;-81
2023/08/03 11:38:51;;;;;;;3.22;0.88;;;;;;;;;;5038461;28;20029;-81
2023/08/03 11:41:25;;;;;;;6.68;1.02;;;;;;;;;;5019290;28;20473;-78
2023/08/03 11:43:54;;;;;;;4.90;0.80;;;;;;;;;;5023644;28;20120;-80
2023/08/03 11:46:23;;;;;;;4.03;0.95;;;;;;;;;;5021755;28;20087;-80
2023/08/03 11:48:49;;;;;;;2.17;0.73;;;;;;;;;;5021295;28;20041;-79
2023/08/03 11:51:15;;;;;;;10.77;1.38;;;;;;;;;;5031894;28;20028;-77
2023/08/03 11:53:41;;;;;;;2.83;0.90;;;;;;;;;;5026860;28;20695;-81
2023/08/03 11:56:07;;;;;;;3.22;1.05;;;;;;;;;;5024791;28;20033;-80
2023/08/03 11:58:35;;;;;;;8.40;1.17;;;;;;;;;;5023841;28;20031;-79
2023/08/03 12:01:02;;;;;;;3.65;0.70;;;;;;;;;;5022651;28;20504;-82
2023/08/03 12:03:36;;;;;;;5.03;0.90;;;;;;;;;;5026811;28;21664;-79
2023/08/03 12:06:05;;;;;;;5.20;1.55;;;;;;;;;;5030221;28;20095;-80
2023/08/03 12:08:40;;;;;;;5.18;1.10;;;;;;;;;;5027184;28;20045;-80
2023/08/03 12:11:09;;;;;;;3.95;1.15;;;;;;;;;;5045560;28;20030;-76
2023/08/03 12:13:35;;;;;;;2.95;0.80;;;;;;;;;;5047625;28;20041;-77
2023/08/03 12:16:04;;;;;;;5.32;1.10;;;;;;;;;;5033002;28;20103;-79
2023/08/03 12:18:30;;;;;;;3.80;0.90;;;;;;;;;;5031968;28;20041;-79
2023/08/03 12:20:56;;;;;;;2.10;0.70;;;;;;;;;;5023799;28;20033;-83
2023/08/03 12:23:24;;;;;;;3.10;0.70;;;;;;;;;;5022477;28;20068;-80
2023/08/03 12:25:54;;;;;;;8.88;1.02;;;;;;;;;;5023020;28;20034;-83
2023/08/03 12:28:20;;;;;;;1.60;0.60;;;;;;;;;;5023844;28;20064;-81
2023/08/03 12:30:46;;;;;;;2.58;0.90;;;;;;;;;;5024018;28;20060;-80
2023/08/03 12:33:13;;;;;;;1.48;0.60;;;;;;;;;;5022319;28;20037;-79
2023/08/03 12:35:39;;;;;;;4.05;0.73;;;;;;;;;;5026332;28;20040;-84
2023/08/03 12:38:05;;;;;;;2.17;0.60;;;;;;;;;;5021003;28;20026;-80
2023/08/03 12:40:32;;;;;;;1.85;0.50;;;;;;;;;;5021805;28;20033;-79
2023/08/03 12:43:02;;;;;;;3.75;0.90;;;;;;;;;;5024103;28;20105;-83
2023/08/03 12:45:28;;;;;;;3.40;0.88;;;;;;;;;;5021764;28;20025;-81
2023/08/03 12:47:54;;;;;;;4.05;0.65;;;;;;;;;;5024827;28;20033;-83
2023/08/03 12:50:20;;;;;;;2.70;1.05;;;;;;;;;;5025063;28;20026;-80
2023/08/03 12:52:46;;;;;;;4.50;0.90;;;;;;;;;;5041717;28;20069;-81
2023/08/03 12:55:13;;;;;;;3.45;1.17;;;;;;;;;;5042594;28;20065;-82
2023/08/03 12:57:39;;;;;;;3.67;1.00;;;;;;;;;;5021855;28;20033;-79
2023/08/03 13:00:06;;;;;;;6.18;1.40;;;;;;;;;;5030860;28;20029;-80
2023/08/03 13:02:33;;;;;;;1.92;0.70;;;;;;;;;;5023146;28;20454;-79
2023/08/03 13:04:59;;;;;;;7.55;1.27;;;;;;;;;;5020323;28;20064;-82
2023/08/03 13:07:27;;;;;;;6.18;1.13;;;;;;;;;;5021979;28;20029;-82
2023/08/03 13:09:53;;;;;;;4.85;1.05;;;;;;;;;;5021598;28;20038;-79
2023/08/03 13:12:22;;;;;;;1.65;0.60;;;;;;;;;;5024332;28;20039;-80
2023/08/03 13:14:50;;;;;;;2.10;0.50;;;;;;;;;;5032224;28;20043;-77
2023/08/03 13:17:16;;;;;;;2.97;0.60;;;;;;;;;;5042942;28;20029;-81
2023/08/03 13:19:42;;;;;;;4.30;1.13;;;;;;;;;;5022320;28;20107;-80
2023/08/03 13:22:13;;;;;;;6.03;0.85;;;;;;;;;;5021631;28;20119;-83
2023/08/03 13:24:39;;;;;;;2.90;0.80;;;;;;;;;;5028023;28;20045;-81
2023/08/03 13:27:12;;;;;;;2.75;0.80;;;;;;;;;;5025001;28;20415;-79
2023/08/03 13:29:42;;;;;;;2.88;0.82;;;;;;;;;;5022462;28;20033;-84
2023/08/03 13:32:08;;;;;;;1.90;0.57;;;;;;;;;;5034950;28;20030;-80
2023/08/03 13:34:34;;;;;;;7.70;0.93;;;;;;;;;;5023792;28;20029;-78
2023/08/03 13:37:00;;;;;;;3.50;0.68;;;;;;;;;;5020212;28;20561;-81
2023/08/03 13:39:27;;;;;;;5.40;0.88;;;;;;;;;;5027636;28;20025;-80
2023/08/03 13:41:53;;;;;;;2.47;0.70;;;;;;;;;;5023342;28;20021;-80
2023/08/03 13:44:19;;;;;;;2.50;0.82;;;;;;;;;;5019772;28;20053;-81
2023/08/03 13:46:45;;;;;;;2.85;1.48;;;;;;;;;;5041619;28;20154;-81
2023/08/03 13:49:11;;;;;;;6.65;1.05;;;;;;;;;;5020475;28;20033;-80
2023/08/03 13:51:36;;;;;;;2.88;0.88;;;;;;;;;;5020712;28;20871;-81
2023/08/03 13:54:02;;;;;;;4.53;1.08;;;;;;;;;;5029095;28;20045;-78
2023/08/03 13:56:28;;;;;;;3.25;1.00;;;;;;;;;;5028172;28;20067;-80
2023/08/03 13:58:54;;;;;;;0.93;0.47;;;;;;;;;;5022682;28;20034;-83
2023/08/03 14:01:20;;;;;;;1.85;0.40;;;;;;;;;;5037663;28;20093;-73
2023/08/03 14:03:47;;;;;;;6.45;0.98;;;;;;;;;;5042490;28;20038;-78
2023/08/03 14:06:13;;;;;;;1.35;0.50;;;;;;;;;;5044339;28;20029;-73
2023/08/03 14:08:39;;;;;;;1.40;0.50;;;;;;;;;;5044155;28;20038;-78
2023/08/03 14:11:06;;;;;;;2.75;1.10;;;;;;;;;;5039542;28;20033;-79
2023/08/03 14:13:32;;;;;;;2.00;0.45;;;;;;;;;;5022928;28;20037;-79
2023/08/03 14:15:58;;;;;;;1.48;0.50;;;;;;;;;;5027603;28;20030;-75
2023/08/03 14:18:24;;;;;;;1.10;0.65;;;;;;;;;;5051037;28;20122;-78
2023/08/03 14:20:50;;;;;;;2.83;0.50;;;;;;;;;;5026295;28;20116;-78
2023/08/03 14:23:16;;;;;;;1.67;0.30;;;;;;;;;;5039656;28;20041;-76
2023/08/03 14:25:44;;;;;;;1.42;0.47;;;;;;;;;;5040928;28;20039;-75
2023/08/03 14:28:10;;;;;;;2.33;0.40;;;;;;;;;;5045280;28;20034;-75
2023/08/03 14:30:36;;;;;;;2.90;0.50;;;;;;;;;;5040821;28;20068;-76
2023/08/03 14:33:03;;;;;;;1.98;0.50;;;;;;;;;;5043549;28;21152;-79
2023/08/03 14:35:29;;;;;;;1.40;0.43;;;;;;;;;;5044324;28;20045;-78
2023/08/03 14:37:55;;;;;;;1.40;0.45;;;;;;;;;;5032962;28;20030;-74
2023/08/03 14:40:20;;;;;;;5.75;0.75;;;;;;;;;;5047143;28;20037;-76
2023/08/03 14:42:47;;;;;;;1.13;0.40;;;;;;;;;;5049118;28;20668;-81